createdAt,value
2023-04-04T00:01:42.373Z,10.57
2023-04-04T00:04:11.110Z,7.90
2023-04-04T00:06:44.616Z,6.53
2023-04-04T00:09:13.237Z,6.00
2023-04-04T00:11:43.758Z,9.18
2023-04-04T00:14:12.993Z,8.63
2023-04-04T00:16:45.570Z,5.45
2023-04-04T00:19:18.370Z,4.70
2023-04-04T00:21:48.353Z,6.82
2023-04-04T00:24:16.932Z,5.47
2023-04-04T00:26:45.833Z,8.60
2023-04-04T00:29:14.514Z,5.47
2023-04-04T00:31:44.040Z,7.80
2023-04-04T00:34:12.534Z,5.30
2023-04-04T00:36:43.551Z,5.82
2023-04-04T00:39:12.687Z,5.40
2023-04-04T00:41:42.235Z,4.85
2023-04-04T00:44:12.056Z,4.75
2023-04-04T00:46:42.348Z,5.65
2023-04-04T00:49:11.739Z,4.90
2023-04-04T00:51:40.636Z,5.85
2023-04-04T00:54:09.589Z,3.85
2023-04-04T00:56:40.311Z,4.50
2023-04-04T00:59:08.898Z,4.90
2023-04-04T01:01:38.098Z,3.75
2023-04-04T01:04:06.884Z,5.05
2023-04-04T01:06:36.205Z,6.53
2023-04-04T01:09:05.172Z,4.80
2023-04-04T01:11:36.714Z,4.03
2023-04-04T01:14:06.720Z,4.32
2023-04-04T01:16:36.516Z,5.18
2023-04-04T01:19:10.885Z,4.55
2023-04-04T01:21:44.835Z,6.22
2023-04-04T01:24:18.646Z,4.35
2023-04-04T01:26:55.533Z,3.78
2023-04-04T01:29:24.115Z,5.30
2023-04-04T01:32:13.185Z,4.97
2023-04-04T01:34:56.718Z,7.10
2023-04-04T01:38:03.619Z,5.45
2023-04-04T01:40:35.753Z,3.17
2023-04-04T01:43:05.952Z,4.47
2023-04-04T01:45:38.367Z,4.15
2023-04-04T01:48:19.131Z,3.83
2023-04-04T01:50:52.610Z,4.15
2023-04-04T01:53:23.998Z,3.90
2023-04-04T01:55:52.844Z,6.82
2023-04-04T01:58:26.548Z,3.40
2023-04-04T02:00:55.168Z,4.68
2023-04-04T02:03:24.135Z,4.55
2023-04-04T02:05:55.186Z,4.82
2023-04-04T02:08:27.569Z,5.07
2023-04-04T02:11:00.970Z,3.20
2023-04-04T02:13:30.526Z,6.13
2023-04-04T02:16:02.065Z,7.25
2023-04-04T02:18:30.958Z,4.03
2023-04-04T02:20:59.620Z,4.68
2023-04-04T02:23:28.810Z,6.97
2023-04-04T02:25:57.841Z,8.05
2023-04-04T02:28:28.900Z,5.80
2023-04-04T02:31:02.641Z,3.90
2023-04-04T02:33:37.974Z,3.85
2023-04-04T02:36:08.719Z,8.35
2023-04-04T02:38:38.794Z,6.40
2023-04-04T02:41:10.416Z,4.85
2023-04-04T02:43:39.373Z,3.25
2023-04-04T02:46:21.160Z,4.47
2023-04-04T02:48:56.581Z,2.80
2023-04-04T02:51:25.557Z,5.50
2023-04-04T02:53:54.560Z,3.78
2023-04-04T02:56:28.835Z,5.10
2023-04-04T02:58:57.958Z,6.40
2023-04-04T03:01:27.625Z,9.70
2023-04-04T03:03:57.124Z,69.22
2023-04-04T03:06:25.667Z,31.48
2023-04-04T03:08:57.008Z,27.13
2023-04-04T03:11:25.880Z,37.30
2023-04-04T03:13:56.293Z,13.50
2023-04-04T03:16:35.140Z,4.28
2023-04-04T03:19:05.572Z,3.97
2023-04-04T03:21:36.002Z,4.07
2023-04-04T03:24:05.125Z,4.95
2023-04-04T03:26:34.531Z,1.42
2023-04-04T03:29:06.881Z,4.05
2023-04-04T03:34:04.675Z,2.67
2023-04-04T03:36:33.215Z,4.60
2023-04-04T03:39:03.450Z,2.45
2023-04-04T03:41:33.190Z,2.03
2023-04-04T03:44:04.973Z,4.57
2023-04-04T03:46:39.848Z,3.78
2023-04-04T03:49:14.317Z,3.65
2023-04-04T03:51:43.058Z,2.90
2023-04-04T03:54:35.000Z,4.45
2023-04-04T03:57:04.130Z,14.25
2023-04-04T03:59:37.476Z,27.00
2023-04-04T04:02:07.073Z,25.35
2023-04-04T04:04:36.314Z,13.85
2023-04-04T04:07:05.767Z,4.32
2023-04-04T04:09:35.546Z,2.45
2023-04-04T04:12:04.103Z,11.60
2023-04-04T04:14:32.817Z,8.05
2023-04-04T04:17:05.568Z,12.48
2023-04-04T04:19:34.187Z,5.90
2023-04-04T04:22:02.477Z,5.80
2023-04-04T04:24:32.451Z,14.68
2023-04-04T04:27:01.504Z,13.25
2023-04-04T04:29:31.347Z,2.42
2023-04-04T04:32:00.140Z,4.32
2023-04-04T04:34:32.469Z,6.75
2023-04-04T04:37:01.752Z,9.82
2023-04-04T04:39:37.996Z,11.80
2023-04-04T04:42:20.010Z,18.15
2023-04-04T04:44:53.880Z,10.75
2023-04-04T04:47:24.355Z,20.38
2023-04-04T04:49:54.029Z,4.90
2023-04-04T04:52:33.059Z,6.63
2023-04-04T04:55:01.597Z,4.93
2023-04-04T04:57:30.885Z,6.28
2023-04-04T05:00:07.028Z,9.40
2023-04-04T05:02:35.851Z,34.53
2023-04-04T05:05:05.972Z,9.60
2023-04-04T05:07:35.456Z,28.75
2023-04-04T05:10:05.829Z,19.33
2023-04-04T05:12:34.159Z,8.63
2023-04-04T05:15:02.920Z,6.38
2023-04-04T05:17:32.004Z,5.93
2023-04-04T05:20:07.781Z,9.05
2023-04-04T05:25:12.446Z,9.40
2023-04-04T05:27:49.027Z,6.13
2023-04-04T05:30:21.324Z,11.27
2023-04-04T05:33:03.389Z,2.78
2023-04-04T05:35:33.239Z,4.20
2023-04-04T05:38:01.809Z,4.70
2023-04-04T05:40:30.961Z,7.97
2023-04-04T05:43:08.338Z,5.85
2023-04-04T05:45:47.107Z,7.10
2023-04-04T05:48:15.992Z,5.70
2023-04-04T05:50:51.922Z,5.05
2023-04-04T05:53:26.379Z,3.80
2023-04-04T05:55:55.146Z,3.45
2023-04-04T05:58:30.277Z,4.47
2023-04-04T06:01:01.586Z,3.67
2023-04-04T06:03:30.978Z,5.25
2023-04-04T06:06:04.909Z,7.22
2023-04-04T06:08:50.178Z,5.20
2023-04-04T06:11:24.571Z,2.15
2023-04-04T06:13:58.776Z,5.68
2023-04-04T06:16:27.476Z,3.67
2023-04-04T06:18:56.529Z,4.85
2023-04-04T06:21:25.025Z,7.05
2023-04-04T06:23:53.371Z,8.10
2023-04-04T06:26:22.249Z,9.10
2023-04-04T06:28:52.420Z,6.85
2023-04-04T06:31:27.383Z,12.65
2023-04-04T06:34:01.641Z,7.45
2023-04-04T06:36:34.217Z,11.25
2023-04-04T06:39:04.966Z,8.40
2023-04-04T06:41:34.368Z,8.55
2023-04-04T06:44:02.846Z,4.93
2023-04-04T06:46:33.253Z,6.10
2023-04-04T06:49:01.577Z,5.50
2023-04-04T06:51:30.472Z,7.32
2023-04-04T06:54:00.323Z,3.92
2023-04-04T06:56:29.353Z,3.38
2023-04-04T06:58:57.649Z,6.32
2023-04-04T07:01:26.479Z,4.00
2023-04-04T07:03:55.027Z,5.45
2023-04-04T07:06:25.985Z,3.65
2023-04-04T07:08:54.410Z,7.15
2023-04-04T07:11:26.280Z,4.97
2023-04-04T07:13:54.624Z,5.22
2023-04-04T07:16:23.312Z,4.43
2023-04-04T07:18:51.679Z,3.80
2023-04-04T07:21:20.980Z,6.43
2023-04-04T07:23:51.101Z,4.57
2023-04-04T07:26:19.623Z,3.47
2023-04-04T07:28:47.970Z,6.50
2023-04-04T07:31:16.599Z,3.38
2023-04-04T07:33:45.150Z,4.15
2023-04-04T07:36:14.010Z,4.90
2023-04-04T07:38:42.295Z,6.53
2023-04-04T07:41:11.825Z,7.13
2023-04-04T07:43:40.083Z,4.97
2023-04-04T07:46:08.796Z,3.63
2023-04-04T07:48:37.263Z,6.53
2023-04-04T07:51:06.248Z,7.60
2023-04-04T07:53:34.772Z,2.38
2023-04-04T07:56:09.608Z,3.97
2023-04-04T07:58:37.912Z,6.25
2023-04-04T08:01:06.681Z,4.55
2023-04-04T08:03:35.278Z,4.60
2023-04-04T08:06:04.190Z,5.55
2023-04-04T08:08:32.480Z,3.00
2023-04-04T08:11:01.790Z,4.88
2023-04-04T08:13:30.028Z,3.72
2023-04-04T08:15:59.233Z,6.22
2023-04-04T08:18:27.693Z,5.40
2023-04-04T08:20:56.845Z,19.25
2023-04-04T08:23:25.643Z,8.88
2023-04-04T08:25:54.211Z,12.80
2023-04-04T08:28:22.553Z,6.78
2023-04-04T08:30:55.470Z,3.72
2023-04-04T08:33:37.179Z,11.27
2023-04-04T08:36:16.500Z,6.85
2023-04-04T08:38:44.848Z,13.48
2023-04-04T08:41:14.230Z,7.10
2023-04-04T08:43:46.632Z,10.45
2023-04-04T08:46:16.959Z,8.50
2023-04-04T08:48:47.484Z,14.32
2023-04-04T08:51:17.603Z,12.48
2023-04-04T08:53:47.024Z,14.65
2023-04-04T08:56:15.860Z,56.47
2023-04-04T08:58:44.370Z,4.00
2023-04-04T09:01:14.311Z,25.88
2023-04-04T09:03:44.103Z,2.45
2023-04-04T09:06:14.513Z,9.60
2023-04-04T09:08:45.054Z,4.88
2023-04-04T09:11:14.918Z,20.65
2023-04-04T09:13:45.509Z,4.30
2023-04-04T09:16:14.793Z,11.50
2023-04-04T09:18:44.390Z,4.78
2023-04-04T09:21:13.988Z,10.20
2023-04-04T09:23:44.762Z,5.47
2023-04-04T09:26:17.190Z,3.03
2023-04-04T09:28:53.458Z,8.55
2023-04-04T09:31:24.455Z,3.65
2023-04-04T09:33:53.007Z,3.80
2023-04-04T09:36:21.728Z,4.43
2023-04-04T09:38:53.742Z,7.40
2023-04-04T09:41:22.730Z,4.72
2023-04-04T09:43:51.538Z,3.35
2023-04-04T09:46:21.413Z,3.88
2023-04-04T09:48:53.453Z,4.28
2023-04-04T09:51:22.084Z,6.18
2023-04-04T09:53:51.946Z,6.28
2023-04-04T09:56:22.577Z,5.43
2023-04-04T10:01:24.425Z,3.75
2023-04-04T10:03:54.614Z,4.15
2023-04-04T10:06:23.692Z,3.42
2023-04-04T10:08:52.302Z,3.47
2023-04-04T10:11:34.529Z,3.53
2023-04-04T10:14:04.195Z,2.75
2023-04-04T10:16:38.480Z,4.57
2023-04-04T10:19:08.883Z,2.60
2023-04-04T10:21:38.059Z,3.00
2023-04-04T10:24:10.212Z,2.63
2023-04-04T10:26:39.258Z,3.45
2023-04-04T10:29:07.565Z,3.85
2023-04-04T10:31:41.556Z,3.53
2023-04-04T10:34:22.682Z,5.28
2023-04-04T10:36:58.365Z,5.10
2023-04-04T10:39:54.045Z,2.83
2023-04-04T10:42:23.723Z,10.98
2023-04-04T10:44:52.141Z,9.63
2023-04-04T10:47:26.604Z,2.53
2023-04-04T10:49:55.945Z,5.70
2023-04-04T10:52:27.888Z,10.00
2023-04-04T10:55:02.614Z,4.88
2023-04-04T10:57:31.562Z,4.38
2023-04-04T11:00:10.207Z,5.03
2023-04-04T11:02:58.622Z,2.95
2023-04-04T11:05:41.343Z,4.10
2023-04-04T11:08:14.209Z,7.22
2023-04-04T11:10:48.674Z,4.75
2023-04-04T11:13:22.208Z,8.60
2023-04-04T11:16:24.169Z,4.20
2023-04-04T11:18:53.196Z,9.00
2023-04-04T11:21:30.051Z,5.25
2023-04-04T11:23:58.527Z,5.80
2023-04-04T11:26:27.817Z,5.00
2023-04-04T11:28:58.318Z,4.15
2023-04-04T11:31:30.386Z,4.03
2023-04-04T11:36:38.450Z,3.15
2023-04-04T11:39:43.528Z,3.20
2023-04-04T11:42:15.093Z,4.53
2023-04-04T11:44:50.294Z,6.82
2023-04-04T11:47:24.405Z,3.80
2023-04-04T11:49:54.185Z,4.60
2023-04-04T11:52:24.102Z,3.95
2023-04-04T11:54:52.814Z,2.97
2023-04-04T11:57:22.006Z,4.22
2023-04-04T11:59:52.463Z,4.03
2023-04-04T12:02:32.263Z,4.82
2023-04-04T12:05:01.469Z,2.42
2023-04-04T12:07:30.477Z,2.10
2023-04-04T12:09:59.432Z,3.95
2023-04-04T12:12:30.403Z,4.07
2023-04-04T12:15:06.658Z,4.50
2023-04-04T12:17:44.463Z,4.50
2023-04-04T12:20:16.377Z,7.03
2023-04-04T12:22:49.996Z,11.77
2023-04-04T12:25:21.753Z,5.25
2023-04-04T12:27:52.561Z,5.13
2023-04-04T12:30:24.029Z,4.63
2023-04-04T12:32:52.585Z,8.63
2023-04-04T12:35:21.230Z,4.78
2023-04-04T12:38:11.455Z,4.35
2023-04-04T12:40:40.092Z,2.92
2023-04-04T12:43:09.642Z,4.35
2023-04-04T12:45:44.037Z,3.25
2023-04-04T12:48:15.101Z,5.22
2023-04-04T12:50:58.167Z,3.95
2023-04-04T12:53:30.648Z,3.72
2023-04-04T12:56:05.116Z,4.13
2023-04-04T12:58:35.974Z,3.45
2023-04-04T13:01:07.254Z,3.95
2023-04-04T13:03:37.906Z,3.33
2023-04-04T13:06:16.585Z,3.35
2023-04-04T13:08:55.498Z,3.17
2023-04-04T13:11:24.900Z,4.50
2023-04-04T13:14:03.425Z,4.15
2023-04-04T13:16:35.942Z,4.13
2023-04-04T13:19:04.692Z,5.05
2023-04-04T13:21:35.308Z,3.58
2023-04-04T13:24:04.185Z,3.95
2023-04-04T13:26:33.084Z,6.50
2023-04-04T13:29:01.894Z,5.25
2023-04-04T13:31:31.770Z,4.72
2023-04-04T13:34:00.050Z,4.03
2023-04-04T13:36:28.984Z,3.50
2023-04-04T13:38:57.534Z,3.25
2023-04-04T13:41:26.314Z,4.35
2023-04-04T13:43:54.610Z,3.58
2023-04-04T13:46:22.977Z,3.50
2023-04-04T13:48:52.301Z,4.30
2023-04-04T13:51:20.642Z,5.60
2023-04-04T13:53:49.475Z,2.88
2023-04-04T13:56:19.035Z,3.35
2023-04-04T13:58:48.261Z,7.97
2023-04-04T14:01:16.745Z,3.72
2023-04-04T14:03:45.609Z,2.90
2023-04-04T14:06:14.024Z,3.08
2023-04-04T14:08:42.631Z,6.63
2023-04-04T14:11:10.937Z,4.18
2023-04-04T14:13:40.687Z,4.47
2023-04-04T14:16:09.434Z,3.92
2023-04-04T14:18:38.191Z,3.08
2023-04-04T14:21:07.383Z,2.60
2023-04-04T14:23:36.360Z,4.43
2023-04-04T14:26:04.699Z,3.17
2023-04-04T14:28:33.776Z,4.32
2023-04-04T14:31:02.234Z,4.40
2023-04-04T14:33:30.864Z,6.00
2023-04-04T14:35:59.053Z,2.95
2023-04-04T14:38:28.037Z,4.97
2023-04-04T14:40:56.358Z,4.80
2023-04-04T14:43:25.129Z,3.28
2023-04-04T14:45:53.601Z,3.67
2023-04-04T14:48:22.195Z,3.67
2023-04-04T14:50:52.120Z,3.40
2023-04-04T14:53:21.680Z,6.20
2023-04-04T14:55:50.092Z,2.55
2023-04-04T14:58:21.989Z,3.92
2023-04-04T15:00:50.534Z,1.83
2023-04-04T15:03:22.943Z,3.97
2023-04-04T15:08:19.884Z,3.47
2023-04-04T15:10:48.190Z,3.22
2023-04-04T15:13:16.967Z,16.77
2023-04-04T15:16:10.827Z,7.45
2023-04-04T15:18:40.166Z,5.10
2023-04-04T15:21:08.400Z,1.83
2023-04-04T15:23:55.796Z,3.15
2023-04-04T15:26:24.466Z,4.70
2023-04-04T15:28:52.892Z,3.05
2023-04-04T15:31:21.627Z,6.50
2023-04-04T15:33:49.915Z,3.83
2023-04-04T15:36:18.793Z,1.88
2023-04-04T15:38:47.218Z,16.45
2023-04-04T15:41:16.260Z,5.85
2023-04-04T15:43:47.336Z,2.53
2023-04-04T15:46:15.956Z,2.67
2023-04-04T15:48:44.448Z,5.85
2023-04-04T15:51:12.993Z,3.38
2023-04-04T15:53:41.254Z,3.30
2023-04-04T15:56:10.526Z,3.70
2023-04-04T15:58:38.907Z,3.97
2023-04-04T16:01:08.026Z,5.10
2023-04-04T16:03:39.668Z,3.05
2023-04-04T16:08:42.804Z,2.90
2023-04-04T16:11:11.836Z,3.20
2023-04-04T16:13:40.095Z,4.22
2023-04-04T16:16:09.233Z,2.95
2023-04-04T16:18:37.943Z,5.93
2023-04-04T16:21:06.846Z,5.20
2023-04-04T16:23:35.474Z,7.90
2023-04-04T16:26:04.125Z,4.22
2023-04-04T16:28:32.723Z,5.72
2023-04-04T16:31:01.368Z,3.63
2023-04-04T16:33:29.802Z,4.30
2023-04-04T16:35:58.973Z,5.53
2023-04-04T16:38:27.160Z,7.00
2023-04-04T16:40:55.638Z,7.45
2023-04-04T16:43:23.810Z,4.80
2023-04-04T16:45:52.971Z,5.07
2023-04-04T16:48:21.325Z,5.13
2023-04-04T16:50:49.921Z,6.22
2023-04-04T16:53:18.131Z,3.20
2023-04-04T16:55:46.868Z,5.10
2023-04-04T16:58:15.216Z,4.35
2023-04-04T17:00:44.109Z,5.65
2023-04-04T17:03:12.788Z,4.75
2023-04-04T17:05:41.547Z,4.00
2023-04-04T17:08:09.962Z,5.85
2023-04-04T17:10:40.743Z,31.00
2023-04-04T17:13:09.289Z,10.68
2023-04-04T17:15:38.116Z,13.57
2023-04-04T17:18:07.225Z,13.68
2023-04-04T17:20:35.863Z,10.95
2023-04-04T17:23:04.258Z,9.95
2023-04-04T17:25:33.332Z,11.23
2023-04-04T17:28:02.567Z,15.63
2023-04-04T17:30:31.490Z,16.45
2023-04-04T17:32:59.771Z,25.33
2023-04-04T17:35:28.463Z,37.65
2023-04-04T17:37:56.886Z,44.35
2023-04-04T17:40:26.042Z,26.85
2023-04-04T17:42:54.465Z,30.70
2023-04-04T17:45:23.441Z,33.95
2023-04-04T17:47:54.414Z,36.63
2023-04-04T17:50:23.164Z,26.75
2023-04-04T17:52:51.673Z,37.42
2023-04-04T17:55:22.353Z,36.13
2023-04-04T17:57:50.750Z,32.78
2023-04-04T18:00:20.253Z,26.60
2023-04-04T18:02:48.914Z,13.75
2023-04-04T18:05:20.373Z,11.15
2023-04-04T18:07:48.717Z,9.40
2023-04-04T18:10:17.766Z,13.13
2023-04-04T18:12:46.611Z,13.55
2023-04-04T18:15:15.539Z,12.75
2023-04-04T18:17:43.916Z,17.83
2023-04-04T18:20:16.371Z,25.92
2023-04-04T18:22:49.745Z,22.05
2023-04-04T18:25:18.962Z,27.50
2023-04-04T18:27:47.357Z,33.17
2023-04-04T18:30:16.802Z,26.50
2023-04-04T18:32:45.165Z,268.48
2023-04-04T18:35:15.379Z,232.00
2023-04-04T18:37:43.747Z,213.55
2023-04-04T18:40:12.462Z,87.32
2023-04-04T18:42:41.183Z,67.47
2023-04-04T18:45:10.300Z,34.92
2023-04-04T18:47:40.381Z,76.53
2023-04-04T18:50:09.672Z,16.83
2023-04-04T18:52:38.253Z,16.80
2023-04-04T18:55:07.729Z,17.52
2023-04-04T18:57:37.360Z,17.05
2023-04-04T19:00:08.343Z,20.83
2023-04-04T19:02:37.573Z,22.25
2023-04-04T19:05:07.289Z,19.10
2023-04-04T19:07:36.425Z,28.23
2023-04-04T19:10:07.081Z,40.38
2023-04-04T19:12:35.592Z,32.30
2023-04-04T19:15:05.386Z,17.20
2023-04-04T19:17:33.693Z,32.53
2023-04-04T19:20:02.633Z,33.65
2023-04-04T19:22:30.954Z,18.55
2023-04-04T19:24:59.630Z,15.88
2023-04-04T19:27:27.954Z,21.48
2023-04-04T19:29:57.702Z,19.92
2023-04-04T19:32:28.062Z,24.80
2023-04-04T19:34:57.182Z,26.48
2023-04-04T19:37:26.431Z,28.60
2023-04-04T19:39:55.208Z,25.60
2023-04-04T19:42:28.746Z,24.45
2023-04-04T19:44:59.044Z,25.58
2023-04-04T19:47:27.468Z,16.73
2023-04-04T19:49:57.365Z,21.75
2023-04-04T19:52:25.758Z,21.77
2023-04-04T19:54:56.894Z,23.75
2023-04-04T19:57:25.573Z,28.83
2023-04-04T20:00:02.111Z,32.90
2023-04-04T20:02:43.360Z,44.15
2023-04-04T20:05:41.320Z,58.45
2023-04-04T20:08:11.121Z,78.07
2023-04-04T20:10:42.218Z,72.65
2023-04-04T20:13:10.949Z,59.45
2023-04-04T20:15:48.856Z,69.70
2023-04-04T20:18:24.581Z,65.97
2023-04-04T20:21:02.552Z,64.95
2023-04-04T20:23:32.594Z,53.80
2023-04-04T20:26:08.721Z,30.98
2023-04-04T20:28:37.321Z,27.33
2023-04-04T20:31:08.872Z,28.15
2023-04-04T20:33:40.904Z,42.85
2023-04-04T20:36:13.942Z,31.33
2023-04-04T20:38:42.641Z,50.70
2023-04-04T20:41:24.619Z,41.25
2023-04-04T20:43:58.003Z,47.88
2023-04-04T20:46:28.140Z,62.63
2023-04-04T20:48:59.381Z,71.10
2023-04-04T20:51:32.506Z,52.35
2023-04-04T20:54:04.033Z,54.78
2023-04-04T20:56:45.265Z,58.35
2023-04-04T20:59:38.261Z,56.53
2023-04-04T21:02:10.377Z,49.33
2023-04-04T21:04:40.568Z,53.55
2023-04-04T21:07:09.348Z,56.47
2023-04-04T21:09:37.950Z,63.20
2023-04-04T21:12:07.117Z,76.85
2023-04-04T21:14:38.394Z,68.28
2023-04-04T21:17:07.813Z,66.90
2023-04-04T21:19:36.176Z,57.55
2023-04-04T21:22:07.251Z,74.70
2023-04-04T21:24:35.939Z,66.47
2023-04-04T21:27:07.138Z,63.53
2023-04-04T21:29:35.645Z,55.35
2023-04-04T21:32:08.103Z,46.50
2023-04-04T21:34:36.531Z,41.25
2023-04-04T21:37:05.817Z,30.88
2023-04-04T21:39:36.702Z,34.00
2023-04-04T21:42:08.505Z,36.42
2023-04-04T21:44:38.584Z,38.97
2023-04-04T21:47:07.216Z,41.75
2023-04-04T21:49:35.412Z,34.17
2023-04-04T21:52:03.947Z,29.60
2023-04-04T21:54:32.438Z,24.83
2023-04-04T21:57:05.727Z,22.25
2023-04-04T21:59:37.302Z,24.92
2023-04-04T22:02:06.213Z,24.33
2023-04-04T22:04:34.926Z,22.73
2023-04-04T22:07:03.789Z,24.90
2023-04-04T22:09:32.139Z,27.70
2023-04-04T22:12:03.073Z,43.25
2023-04-04T22:14:35.036Z,33.25
2023-04-04T22:17:03.928Z,31.95
2023-04-04T22:19:43.481Z,38.22
2023-04-04T22:22:12.764Z,32.45
2023-04-04T22:24:41.049Z,20.38
2023-04-04T22:27:10.061Z,22.35
2023-04-04T22:29:38.441Z,16.15
2023-04-04T22:32:07.316Z,16.17
2023-04-04T22:34:36.420Z,20.90
2023-04-04T22:37:05.626Z,27.08
2023-04-04T22:39:34.964Z,21.42
2023-04-04T22:42:03.682Z,22.85
2023-04-04T22:44:32.035Z,21.58
2023-04-04T22:47:02.399Z,26.17
2023-04-04T22:49:38.052Z,22.30
2023-04-04T22:52:13.109Z,23.40
2023-04-04T22:54:43.016Z,18.35
2023-04-04T22:57:12.867Z,25.02
2023-04-04T22:59:41.323Z,24.08
2023-04-04T23:02:10.024Z,24.98
2023-04-04T23:04:38.774Z,21.25
2023-04-04T23:07:08.240Z,28.52
2023-04-04T23:09:36.535Z,22.80
2023-04-04T23:12:05.540Z,19.60
2023-04-04T23:14:39.142Z,30.45
2023-04-04T23:17:07.809Z,40.95
2023-04-04T23:19:36.517Z,49.67
2023-04-04T23:22:05.220Z,36.08
2023-04-04T23:24:33.629Z,44.00
2023-04-04T23:27:02.808Z,50.28
2023-04-04T23:29:31.418Z,90.35
2023-04-04T23:32:00.130Z,96.30
2023-04-04T23:34:29.730Z,74.32
2023-04-04T23:36:58.360Z,70.75
2023-04-04T23:39:34.851Z,51.28
2023-04-04T23:42:03.444Z,42.17
2023-04-04T23:44:32.220Z,41.45
2023-04-04T23:47:00.693Z,47.38
2023-04-04T23:49:29.609Z,28.58
2023-04-04T23:51:58.358Z,20.70
2023-04-04T23:54:26.976Z,23.40
2023-04-04T23:56:56.586Z,15.80
2023-04-04T23:59:27.618Z,17.83
